Mariner — WDI4275 — position and weather

sailwx.info

Track history (hours):
 
Tides and Currents Weather Stations Pressure Air Temp Water Temp Dewpoint Dewpoint Depression Visibility Wind Speed Wind Dir Waves Ship Positions

Mariner

Owner: Central Boat Rentals, Inc., Morgan City, LA. More information available from US FCC via Universal Licensing System and Coast Guard Vessel Documentation Center.

Last reported at 2018-Feb-24 05:25 UTC. Time now 2018-Feb-25 15:46 UTC.
Position N 29°25' W 090°43'.

Length 5 m; draft 2 m.

Type: Towing. MMSI: 267014280.

Date/timePositionNaut miles runAvg speedWind from/ knotsBaromVisibWave heightAir tempDewpointWater temp
2018-Feb-24 05:25N 29°25' W 090°43'2 5.2
2018-Feb-24 05:00N 29°27' W 090°43'3 5.1
2018-Feb-24 04:30N 29°30' W 090°43'3 5.0
2018-Feb-24 04:00N 29°32' W 090°42'2 4.4
2018-Feb-24 03:30N 29°34' W 090°43'2 3.7
2018-Feb-24 03:00N 29°34' W 090°45'2 3.1
2018-Feb-24 02:30N 29°32' W 090°46'2 4.8
2018-Feb-24 02:00N 29°32' W 090°49'  
2018-Feb-20 12:55N 29°49' W 092°02'2 5.6
2018-Feb-20 12:31N 29°48' W 092°05'3 5.7
2018-Feb-20 12:01N 29°47' W 092°08'3 5.5
2018-Feb-20 11:30N 29°47' W 092°11'2 4.6
2018-Feb-20 11:01N 29°47' W 092°13'1 2.2
2018-Feb-20 10:31N 29°48' W 092°14'3 5.5
2018-Feb-20 10:01N 29°49' W 092°17'3 5.3
2018-Feb-20 09:31N 29°50' W 092°20'44 5.0
2018-Feb-20 00:38N 29°57' W 093°10'1 4.9
2018-Feb-20 00:29N 29°57' W 093°11'2 4.9
2018-Feb-20 00:01N 29°59' W 093°12'2 4.6
2018-Feb-19 23:31N 30°01' W 093°14'2 3.9
2018-Feb-19 23:00N 30°02' W 093°16'2 4.6
2018-Feb-19 22:31N 30°04' W 093°16'2 4.7
2018-Feb-19 22:01N 30°06' W 093°18'2 4.6
2018-Feb-19 21:31N 30°04' W 093°20'2 4.6
2018-Feb-19 21:01N 30°02' W 093°20'2 4.5
2018-Feb-19 20:31N 29°60' W 093°20'2 4.6
2018-Feb-19 20:01N 29°57' W 093°20'3 5.1
2018-Feb-19 19:30N 29°55' W 093°20'6 2.2
2018-Feb-19 16:52N 29°49' W 093°21'0 0.0
2018-Feb-19 16:24N 29°49' W 093°21'0 0.0
2018-Feb-19 15:44N 29°49' W 093°21'0 0.0
2018-Feb-19 15:30N 29°49' W 093°21'0 0.0
2018-Feb-19 15:01N 29°49' W 093°21'0 0.1
2018-Feb-19 14:03N 29°49' W 093°21'0 0.0
2018-Feb-19 14:01N 29°49' W 093°21'0 0.0
2018-Feb-19 13:12N 29°49' W 093°21'0 0.5
2018-Feb-19 12:57N 29°49' W 093°21'5 4.8
2018-Feb-19 11:57N 29°54' W 093°21'3 6.6
2018-Feb-19 11:27N 29°57' W 093°20'3 6.2
2018-Feb-19 11:01N 29°60' W 093°20'3 6.6
2018-Feb-19 10:31N 30°03' W 093°20'3 6.0
2018-Feb-19 10:01N 30°06' W 093°19'3 4.8
2018-Feb-19 09:28N 30°04' W 093°17'3 5.7
2018-Feb-19 09:01N 30°02' W 093°15'3 5.9
2018-Feb-19 08:31N 29°60' W 093°13'3 6.2
2018-Feb-19 08:01N 29°57' W 093°11'3 5.6
2018-Feb-19 07:29N 29°56' W 093°08'42 5.4
2018-Feb-18 23:42N 29°50' W 092°20'1 5.2
2018-Feb-18 23:28N 29°50' W 092°18'2 5.0
2018-Feb-18 23:01N 29°49' W 092°16'3 5.1
2018-Feb-18 22:31N 29°48' W 092°14'2 4.8
2018-Feb-18 22:00N 29°47' W 092°11'2 5.0
2018-Feb-18 21:31N 29°47' W 092°08'3 5.4
2018-Feb-18 21:00N 29°48' W 092°05'67 2.4
2018-Feb-17 17:16N 29°32' W 090°51'1 5.5
2018-Feb-17 17:00N 29°32' W 090°49'3 5.5
2018-Feb-17 16:30N 29°32' W 090°46'2 4.9
2018-Feb-17 16:00N 29°34' W 090°44'2 3.7
2018-Feb-17 15:29N 29°33' W 090°42'3 5.7
2018-Feb-17 15:00N 29°30' W 090°43'3 5.7
2018-Feb-17 14:30N 29°27' W 090°43'2 0.1
2018-Feb-16 16:23N 29°25' W 090°43'2 5.4
2018-Feb-16 16:00N 29°27' W 090°43'3 5.4
2018-Feb-16 15:30N 29°30' W 090°43'3 5.1
2018-Feb-16 15:00N 29°32' W 090°42'2 4.2
2018-Feb-16 14:30N 29°34' W 090°43'0 0.6
2018-Feb-16 14:00N 29°34' W 090°43'2 3.6
2018-Feb-16 13:30N 29°33' W 090°45'1 2.5
2018-Feb-16 13:00N 29°32' W 090°46'1 2.3
2018-Feb-16 12:30N 29°32' W 090°47'0 0.0
2018-Feb-16 12:00N 29°32' W 090°47'0 0.0
2018-Feb-16 11:30N 29°32' W 090°47'0 0.0
2018-Feb-16 11:00N 29°32' W 090°47'0 0.0
2018-Feb-16 10:30N 29°32' W 090°47'0 0.0
2018-Feb-16 10:00N 29°32' W 090°47'0 0.0
2018-Feb-16 09:30N 29°32' W 090°47'0 0.0
2018-Feb-16 09:00N 29°32' W 090°47'0 0.0
2018-Feb-16 08:30N 29°32' W 090°47'0 0.0
2018-Feb-16 08:00N 29°32' W 090°47'0 0.0
2018-Feb-16 07:27N 29°32' W 090°47'0 0.0
2018-Feb-16 06:59N 29°32' W 090°47'0 0.0
2018-Feb-16 06:30N 29°32' W 090°47'0 0.0
2018-Feb-16 05:55N 29°32' W 090°47'2 4.3
2018-Feb-16 05:30N 29°32' W 090°49'  
Track history (hours):
 
Tides and Currents Weather Stations Pressure Air Temp Water Temp Dewpoint Dewpoint Depression Visibility Wind Speed Wind Dir Waves Ship Positions

Mariner

Owner: Central Boat Rentals, Inc., Morgan City, LA. More information available from US FCC via Universal Licensing System and Coast Guard Vessel Documentation Center.

Last reported at 2018-Feb-24 05:25 UTC. Time now 2018-Feb-25 15:46 UTC.
Position N 29°25' W 090°43'.

Length 5 m; draft 2 m.

Type: Towing. MMSI: 267014280.

Date/timePositionNaut miles runAvg speedWind from/ knotsBaromVisibWave heightAir tempDewpointWater temp
2018-Feb-24 05:25N 29°25' W 090°43'2 5.2
2018-Feb-24 05:00N 29°27' W 090°43'3 5.1
2018-Feb-24 04:30N 29°30' W 090°43'3 5.0
2018-Feb-24 04:00N 29°32' W 090°42'2 4.4
2018-Feb-24 03:30N 29°34' W 090°43'2 3.7
2018-Feb-24 03:00N 29°34' W 090°45'2 3.1
2018-Feb-24 02:30N 29°32' W 090°46'2 4.8
2018-Feb-24 02:00N 29°32' W 090°49'  
2018-Feb-20 12:55N 29°49' W 092°02'2 5.6
2018-Feb-20 12:31N 29°48' W 092°05'3 5.7
2018-Feb-20 12:01N 29°47' W 092°08'3 5.5
2018-Feb-20 11:30N 29°47' W 092°11'2 4.6
2018-Feb-20 11:01N 29°47' W 092°13'1 2.2
2018-Feb-20 10:31N 29°48' W 092°14'3 5.5
2018-Feb-20 10:01N 29°49' W 092°17'3 5.3
2018-Feb-20 09:31N 29°50' W 092°20'44 5.0
2018-Feb-20 00:38N 29°57' W 093°10'1 4.9
2018-Feb-20 00:29N 29°57' W 093°11'2 4.9
2018-Feb-20 00:01N 29°59' W 093°12'2 4.6
2018-Feb-19 23:31N 30°01' W 093°14'2 3.9
2018-Feb-19 23:00N 30°02' W 093°16'2 4.6
2018-Feb-19 22:31N 30°04' W 093°16'2 4.7
2018-Feb-19 22:01N 30°06' W 093°18'2 4.6
2018-Feb-19 21:31N 30°04' W 093°20'2 4.6
2018-Feb-19 21:01N 30°02' W 093°20'2 4.5
2018-Feb-19 20:31N 29°60' W 093°20'2 4.6
2018-Feb-19 20:01N 29°57' W 093°20'3 5.1
2018-Feb-19 19:30N 29°55' W 093°20'6 2.2
2018-Feb-19 16:52N 29°49' W 093°21'0 0.0
2018-Feb-19 16:24N 29°49' W 093°21'0 0.0
2018-Feb-19 15:44N 29°49' W 093°21'0 0.0
2018-Feb-19 15:30N 29°49' W 093°21'0 0.0
2018-Feb-19 15:01N 29°49' W 093°21'0 0.1
2018-Feb-19 14:03N 29°49' W 093°21'0 0.0
2018-Feb-19 14:01N 29°49' W 093°21'0 0.0
2018-Feb-19 13:12N 29°49' W 093°21'0 0.5
2018-Feb-19 12:57N 29°49' W 093°21'5 4.8
2018-Feb-19 11:57N 29°54' W 093°21'3 6.6
2018-Feb-19 11:27N 29°57' W 093°20'3 6.2
2018-Feb-19 11:01N 29°60' W 093°20'3 6.6
2018-Feb-19 10:31N 30°03' W 093°20'3 6.0
2018-Feb-19 10:01N 30°06' W 093°19'3 4.8
2018-Feb-19 09:28N 30°04' W 093°17'3 5.7
2018-Feb-19 09:01N 30°02' W 093°15'3 5.9
2018-Feb-19 08:31N 29°60' W 093°13'3 6.2
2018-Feb-19 08:01N 29°57' W 093°11'3 5.6
2018-Feb-19 07:29N 29°56' W 093°08'42 5.4
2018-Feb-18 23:42N 29°50' W 092°20'1 5.2
2018-Feb-18 23:28N 29°50' W 092°18'2 5.0
2018-Feb-18 23:01N 29°49' W 092°16'3 5.1
2018-Feb-18 22:31N 29°48' W 092°14'2 4.8
2018-Feb-18 22:00N 29°47' W 092°11'2 5.0
2018-Feb-18 21:31N 29°47' W 092°08'3 5.4
2018-Feb-18 21:00N 29°48' W 092°05'67 2.4
2018-Feb-17 17:16N 29°32' W 090°51'1 5.5
2018-Feb-17 17:00N 29°32' W 090°49'3 5.5
2018-Feb-17 16:30N 29°32' W 090°46'2 4.9
2018-Feb-17 16:00N 29°34' W 090°44'2 3.7
2018-Feb-17 15:29N 29°33' W 090°42'3 5.7
2018-Feb-17 15:00N 29°30' W 090°43'3 5.7
2018-Feb-17 14:30N 29°27' W 090°43'2 0.1
2018-Feb-16 16:23N 29°25' W 090°43'2 5.4
2018-Feb-16 16:00N 29°27' W 090°43'3 5.4
2018-Feb-16 15:30N 29°30' W 090°43'3 5.1
2018-Feb-16 15:00N 29°32' W 090°42'2 4.2
2018-Feb-16 14:30N 29°34' W 090°43'0 0.6
2018-Feb-16 14:00N 29°34' W 090°43'2 3.6
2018-Feb-16 13:30N 29°33' W 090°45'1 2.5
2018-Feb-16 13:00N 29°32' W 090°46'1 2.3
2018-Feb-16 12:30N 29°32' W 090°47'0 0.0
2018-Feb-16 12:00N 29°32' W 090°47'0 0.0
2018-Feb-16 11:30N 29°32' W 090°47'0 0.0
2018-Feb-16 11:00N 29°32' W 090°47'0 0.0
2018-Feb-16 10:30N 29°32' W 090°47'0 0.0
2018-Feb-16 10:00N 29°32' W 090°47'0 0.0
2018-Feb-16 09:30N 29°32' W 090°47'0 0.0
2018-Feb-16 09:00N 29°32' W 090°47'0 0.0
2018-Feb-16 08:30N 29°32' W 090°47'0 0.0
2018-Feb-16 08:00N 29°32' W 090°47'0 0.0
2018-Feb-16 07:27N 29°32' W 090°47'0 0.0
2018-Feb-16 06:59N 29°32' W 090°47'0 0.0
2018-Feb-16 06:30N 29°32' W 090°47'0 0.0
2018-Feb-16 05:55N 29°32' W 090°47'2 4.3
2018-Feb-16 05:30N 29°32' W 090°49'  

Dump ship's entire track history